Lake Hughes, California
Current Conditions -  °F | °C
As of 5:56 AM on Monday 20 Oct 2014 (Local Time) from KWJF Reporting Station
Clear Clear  
Wind Chill: 50°   Ceiling: Unl
Heat Index: 50°   Visibility: 10mi
Dew Point: 34°   Wind: 3mph
Humidity: 54%   Direction: 100°E
Pressure: 29.93"   Gusts: NA
Location:  34.68°N, 118.45°W
Report Text: KWJF 201256Z AUTO 10003KT 10SM CLR 10/01 A2993 RMK AO2 SLP125 T01000011
Loading
Personal Weather Stations






























Interactive Weather Map
Tropical Storm Tracking
New forecast layout! Learn more

10-Day Weather Forecast

Advertisements
Track Severe Weather on mobile